KSPS/SPS METAR and TAF weather

Enter ICAO airport designator
Station Type Date Time Source
KSPS METAR 2022/11/27 07:52 UTC NOAA

KSPS 270752Z AUTO 31009KT 10SM BKN065 07/06 A2975 RMK AO2 SLP071 T00720056


Station Type Date Time Source
KSPS Decoded METAR 2022/11/27 07:52 UTC NOAA

WICHITA FALLS SHEPPARD AFB, TX, United States (KSPS) 33-59N 98-30W 308M
Nov 27, 2022 - 02:52 AM EST / 2022.11.27 0752 UTC
Wind: from the NW (310 degrees) at 10 MPH (9 KT):0
Visibility: 10 mile(s):0
Sky conditions: mostly cloudy
Temperature: 45.0 F (7.2 C)
Dew Point: 42.1 F (5.6 C)
Relative Humidity: 89%
Pressure (altimeter): 29.75 in. Hg (1007 hPa)
ob: KSPS 270752Z AUTO 31009KT 10SM BKN065 07/06 A2975 RMK AO2 SLP071 T00720056
cycle: 8

Station Type Date Time Source
KSPS TAF 2022/11/27 06:22 UTC NOAA

TAF KSPS 270520Z 2706/2806 28012KT P6SM SCT025
TEMPO 2706/2707 BKN025
FM271200 33011KT P6SM SCT035 BKN120

Example: see airport list